sensor_id;sensor_type;location;lat;lon;timestamp;P1;durP1;ratioP1;P2;durP2;ratioP2
36411;SDS011;22445;52.100;5.176;2024-01-10T00:01:08;4.10;;;1.27;;
36411;SDS011;22445;52.100;5.176;2024-01-10T00:03:33;3.08;;;1.10;;
36411;SDS011;22445;52.100;5.176;2024-01-10T00:05:59;2.25;;;1.35;;
36411;SDS011;22445;52.100;5.176;2024-01-10T00:08:25;3.92;;;1.55;;
36411;SDS011;22445;52.100;5.176;2024-01-10T00:10:54;3.65;;;1.55;;
36411;SDS011;22445;52.100;5.176;2024-01-10T00:13:20;2.10;;;1.17;;
36411;SDS011;22445;52.100;5.176;2024-01-10T00:15:47;1.88;;;1.15;;
36411;SDS011;22445;52.100;5.176;2024-01-10T00:18:13;4.80;;;1.63;;
36411;SDS011;22445;52.100;5.176;2024-01-10T00:20:38;4.35;;;1.23;;
36411;SDS011;22445;52.100;5.176;2024-01-10T00:23:05;1.92;;;1.48;;
36411;SDS011;22445;52.100;5.176;2024-01-10T00:25:31;6.57;;;1.70;;
36411;SDS011;22445;52.100;5.176;2024-01-10T00:27:57;3.80;;;1.58;;
36411;SDS011;22445;52.100;5.176;2024-01-10T00:30:23;2.80;;;1.50;;
36411;SDS011;22445;52.100;5.176;2024-01-10T00:32:49;3.92;;;1.60;;
36411;SDS011;22445;52.100;5.176;2024-01-10T00:35:15;2.17;;;1.52;;
36411;SDS011;22445;52.100;5.176;2024-01-10T00:37:41;9.10;;;1.92;;
36411;SDS011;22445;52.100;5.176;2024-01-10T00:40:06;2.17;;;1.30;;
36411;SDS011;22445;52.100;5.176;2024-01-10T00:42:33;4.78;;;1.45;;
36411;SDS011;22445;52.100;5.176;2024-01-10T00:44:58;4.18;;;1.90;;
36411;SDS011;22445;52.100;5.176;2024-01-10T00:47:24;3.05;;;1.35;;
36411;SDS011;22445;52.100;5.176;2024-01-10T00:49:50;2.80;;;1.80;;
36411;SDS011;22445;52.100;5.176;2024-01-10T00:52:15;1.77;;;1.13;;
36411;SDS011;22445;52.100;5.176;2024-01-10T00:54:41;3.08;;;1.63;;
36411;SDS011;22445;52.100;5.176;2024-01-10T00:57:06;5.32;;;1.52;;
36411;SDS011;22445;52.100;5.176;2024-01-10T00:59:32;4.40;;;1.58;;
36411;SDS011;22445;52.100;5.176;2024-01-10T01:01:58;3.75;;;1.63;;
36411;SDS011;22445;52.100;5.176;2024-01-10T01:04:23;4.22;;;1.73;;
36411;SDS011;22445;52.100;5.176;2024-01-10T01:06:49;5.63;;;1.73;;
36411;SDS011;22445;52.100;5.176;2024-01-10T01:09:14;5.57;;;2.08;;
36411;SDS011;22445;52.100;5.176;2024-01-10T01:11:40;3.72;;;1.63;;
36411;SDS011;22445;52.100;5.176;2024-01-10T01:14:06;5.07;;;1.65;;
36411;SDS011;22445;52.100;5.176;2024-01-10T01:16:32;4.15;;;1.63;;
36411;SDS011;22445;52.100;5.176;2024-01-10T01:18:58;3.75;;;1.80;;
36411;SDS011;22445;52.100;5.176;2024-01-10T01:21:24;1.90;;;1.35;;
36411;SDS011;22445;52.100;5.176;2024-01-10T01:23:49;4.22;;;2.10;;
36411;SDS011;22445;52.100;5.176;2024-01-10T01:26:15;3.13;;;1.83;;
36411;SDS011;22445;52.100;5.176;2024-01-10T01:28:41;5.10;;;2.33;;
36411;SDS011;22445;52.100;5.176;2024-01-10T01:31:06;5.38;;;2.08;;
36411;SDS011;22445;52.100;5.176;2024-01-10T01:33:32;4.13;;;1.98;;
36411;SDS011;22445;52.100;5.176;2024-01-10T01:35:57;3.92;;;2.00;;
36411;SDS011;22445;52.100;5.176;2024-01-10T01:38:24;3.20;;;1.80;;
36411;SDS011;22445;52.100;5.176;2024-01-10T01:40:49;4.50;;;1.95;;
36411;SDS011;22445;52.100;5.176;2024-01-10T01:43:24;3.80;;;1.75;;
36411;SDS011;22445;52.100;5.176;2024-01-10T01:45:52;2.90;;;1.77;;
36411;SDS011;22445;52.100;5.176;2024-01-10T01:48:22;2.58;;;1.60;;
36411;SDS011;22445;52.100;5.176;2024-01-10T01:50:50;3.60;;;1.75;;
36411;SDS011;22445;52.100;5.176;2024-01-10T01:53:23;3.30;;;2.00;;
36411;SDS011;22445;52.100;5.176;2024-01-10T01:55:49;4.75;;;2.03;;
36411;SDS011;22445;52.100;5.176;2024-01-10T01:58:15;5.65;;;1.95;;
36411;SDS011;22445;52.100;5.176;2024-01-10T02:00:42;4.30;;;1.98;;
36411;SDS011;22445;52.100;5.176;2024-01-10T02:03:09;2.28;;;1.38;;
36411;SDS011;22445;52.100;5.176;2024-01-10T02:05:34;2.00;;;1.30;;
36411;SDS011;22445;52.100;5.176;2024-01-10T02:08:01;2.95;;;1.85;;
36411;SDS011;22445;52.100;5.176;2024-01-10T02:10:26;3.00;;;1.85;;
36411;SDS011;22445;52.100;5.176;2024-01-10T02:12:52;4.68;;;2.28;;
36411;SDS011;22445;52.100;5.176;2024-01-10T02:15:18;3.75;;;2.08;;
36411;SDS011;22445;52.100;5.176;2024-01-10T02:17:43;4.43;;;2.35;;
36411;SDS011;22445;52.100;5.176;2024-01-10T02:20:09;5.47;;;2.00;;
36411;SDS011;22445;52.100;5.176;2024-01-10T02:22:39;2.85;;;1.63;;
36411;SDS011;22445;52.100;5.176;2024-01-10T02:25:11;2.15;;;1.15;;
36411;SDS011;22445;52.100;5.176;2024-01-10T02:27:37;3.88;;;1.73;;
36411;SDS011;22445;52.100;5.176;2024-01-10T02:30:03;3.97;;;1.92;;
36411;SDS011;22445;52.100;5.176;2024-01-10T02:32:29;5.22;;;2.97;;
36411;SDS011;22445;52.100;5.176;2024-01-10T02:34:55;2.65;;;1.77;;
36411;SDS011;22445;52.100;5.176;2024-01-10T02:37:20;3.72;;;1.77;;
36411;SDS011;22445;52.100;5.176;2024-01-10T02:39:46;3.30;;;1.58;;
36411;SDS011;22445;52.100;5.176;2024-01-10T02:42:12;5.43;;;2.65;;
36411;SDS011;22445;52.100;5.176;2024-01-10T02:44:37;3.42;;;1.80;;
36411;SDS011;22445;52.100;5.176;2024-01-10T02:47:03;4.93;;;2.03;;
36411;SDS011;22445;52.100;5.176;2024-01-10T02:49:29;4.82;;;2.33;;
36411;SDS011;22445;52.100;5.176;2024-01-10T02:51:55;3.38;;;1.90;;
36411;SDS011;22445;52.100;5.176;2024-01-10T02:54:20;3.55;;;2.03;;
36411;SDS011;22445;52.100;5.176;2024-01-10T02:56:46;2.92;;;1.85;;
36411;SDS011;22445;52.100;5.176;2024-01-10T02:59:11;7.18;;;2.40;;
36411;SDS011;22445;52.100;5.176;2024-01-10T03:01:37;5.47;;;1.67;;
36411;SDS011;22445;52.100;5.176;2024-01-10T03:04:03;2.92;;;1.65;;
36411;SDS011;22445;52.100;5.176;2024-01-10T03:06:28;6.43;;;2.40;;
36411;SDS011;22445;52.100;5.176;2024-01-10T03:08:54;6.40;;;2.60;;
36411;SDS011;22445;52.100;5.176;2024-01-10T03:11:20;3.97;;;1.98;;
36411;SDS011;22445;52.100;5.176;2024-01-10T03:13:46;3.45;;;1.85;;
36411;SDS011;22445;52.100;5.176;2024-01-10T03:16:13;2.38;;;1.77;;
36411;SDS011;22445;52.100;5.176;2024-01-10T03:18:39;2.90;;;1.85;;
36411;SDS011;22445;52.100;5.176;2024-01-10T03:21:04;6.03;;;2.15;;
36411;SDS011;22445;52.100;5.176;2024-01-10T03:23:30;4.57;;;1.98;;
36411;SDS011;22445;52.100;5.176;2024-01-10T03:25:56;3.65;;;1.38;;
36411;SDS011;22445;52.100;5.176;2024-01-10T03:28:22;4.38;;;2.08;;
36411;SDS011;22445;52.100;5.176;2024-01-10T03:30:48;5.05;;;2.20;;
36411;SDS011;22445;52.100;5.176;2024-01-10T03:33:14;4.45;;;2.30;;
36411;SDS011;22445;52.100;5.176;2024-01-10T03:35:43;4.13;;;2.25;;
36411;SDS011;22445;52.100;5.176;2024-01-10T03:38:08;3.63;;;1.98;;
36411;SDS011;22445;52.100;5.176;2024-01-10T03:40:34;6.45;;;2.53;;
36411;SDS011;22445;52.100;5.176;2024-01-10T03:43:00;2.85;;;1.95;;
36411;SDS011;22445;52.100;5.176;2024-01-10T03:45:26;4.20;;;2.53;;
36411;SDS011;22445;52.100;5.176;2024-01-10T03:47:51;5.30;;;2.25;;
36411;SDS011;22445;52.100;5.176;2024-01-10T03:50:20;5.70;;;2.55;;
36411;SDS011;22445;52.100;5.176;2024-01-10T03:52:46;3.67;;;2.00;;
36411;SDS011;22445;52.100;5.176;2024-01-10T03:55:12;5.35;;;2.15;;
36411;SDS011;22445;52.100;5.176;2024-01-10T03:57:38;3.95;;;1.70;;
36411;SDS011;22445;52.100;5.176;2024-01-10T04:00:05;4.65;;;2.20;;
36411;SDS011;22445;52.100;5.176;2024-01-10T04:02:31;5.15;;;2.35;;
36411;SDS011;22445;52.100;5.176;2024-01-10T04:04:57;4.82;;;2.10;;
36411;SDS011;22445;52.100;5.176;2024-01-10T04:07:23;3.80;;;2.28;;
36411;SDS011;22445;52.100;5.176;2024-01-10T04:09:49;6.25;;;2.42;;
36411;SDS011;22445;52.100;5.176;2024-01-10T04:12:14;3.25;;;1.77;;
36411;SDS011;22445;52.100;5.176;2024-01-10T04:14:40;4.53;;;1.95;;
36411;SDS011;22445;52.100;5.176;2024-01-10T04:17:05;6.15;;;2.42;;
36411;SDS011;22445;52.100;5.176;2024-01-10T04:19:32;5.70;;;2.45;;
36411;SDS011;22445;52.100;5.176;2024-01-10T04:21:58;4.22;;;2.33;;
36411;SDS011;22445;52.100;5.176;2024-01-10T04:24:24;4.15;;;2.17;;
36411;SDS011;22445;52.100;5.176;2024-01-10T04:26:50;8.82;;;2.70;;
36411;SDS011;22445;52.100;5.176;2024-01-10T04:29:16;4.25;;;2.53;;
36411;SDS011;22445;52.100;5.176;2024-01-10T04:31:41;6.68;;;2.80;;
36411;SDS011;22445;52.100;5.176;2024-01-10T04:34:07;5.28;;;2.10;;
36411;SDS011;22445;52.100;5.176;2024-01-10T04:36:33;5.78;;;2.60;;
36411;SDS011;22445;52.100;5.176;2024-01-10T04:38:58;4.55;;;2.30;;
36411;SDS011;22445;52.100;5.176;2024-01-10T04:41:24;5.68;;;1.92;;
36411;SDS011;22445;52.100;5.176;2024-01-10T04:43:50;3.65;;;1.83;;
36411;SDS011;22445;52.100;5.176;2024-01-10T04:46:16;3.83;;;1.98;;
36411;SDS011;22445;52.100;5.176;2024-01-10T04:48:42;5.72;;;2.42;;
36411;SDS011;22445;52.100;5.176;2024-01-10T04:51:07;5.32;;;2.85;;
36411;SDS011;22445;52.100;5.176;2024-01-10T04:53:33;4.28;;;2.17;;
36411;SDS011;22445;52.100;5.176;2024-01-10T04:55:59;7.25;;;3.00;;
36411;SDS011;22445;52.100;5.176;2024-01-10T04:58:24;3.80;;;2.10;;
36411;SDS011;22445;52.100;5.176;2024-01-10T05:00:50;5.18;;;2.45;;
36411;SDS011;22445;52.100;5.176;2024-01-10T05:03:16;7.63;;;2.70;;
36411;SDS011;22445;52.100;5.176;2024-01-10T05:05:41;5.30;;;2.60;;
36411;SDS011;22445;52.100;5.176;2024-01-10T05:08:07;5.35;;;2.55;;
36411;SDS011;22445;52.100;5.176;2024-01-10T05:10:32;3.58;;;2.13;;
36411;SDS011;22445;52.100;5.176;2024-01-10T05:13:01;4.93;;;2.17;;
36411;SDS011;22445;52.100;5.176;2024-01-10T05:15:27;7.72;;;2.88;;
36411;SDS011;22445;52.100;5.176;2024-01-10T05:17:53;4.30;;;2.47;;
36411;SDS011;22445;52.100;5.176;2024-01-10T05:20:18;4.03;;;1.73;;
36411;SDS011;22445;52.100;5.176;2024-01-10T05:22:44;4.53;;;2.45;;
36411;SDS011;22445;52.100;5.176;2024-01-10T05:25:09;5.18;;;2.70;;
36411;SDS011;22445;52.100;5.176;2024-01-10T05:27:35;2.40;;;1.75;;
36411;SDS011;22445;52.100;5.176;2024-01-10T05:30:01;6.00;;;3.00;;
36411;SDS011;22445;52.100;5.176;2024-01-10T05:32:27;4.30;;;2.28;;
36411;SDS011;22445;52.100;5.176;2024-01-10T05:34:55;3.67;;;2.30;;
36411;SDS011;22445;52.100;5.176;2024-01-10T05:37:21;6.03;;;2.45;;
36411;SDS011;22445;52.100;5.176;2024-01-10T05:39:47;3.72;;;2.25;;
36411;SDS011;22445;52.100;5.176;2024-01-10T05:42:13;6.70;;;3.13;;
36411;SDS011;22445;52.100;5.176;2024-01-10T05:44:39;5.72;;;2.38;;
36411;SDS011;22445;52.100;5.176;2024-01-10T05:47:05;7.10;;;2.42;;
36411;SDS011;22445;52.100;5.176;2024-01-10T05:49:31;6.63;;;3.08;;
36411;SDS011;22445;52.100;5.176;2024-01-10T05:51:58;7.15;;;2.53;;
36411;SDS011;22445;52.100;5.176;2024-01-10T05:54:23;3.40;;;2.53;;
36411;SDS011;22445;52.100;5.176;2024-01-10T05:56:49;6.40;;;2.63;;
36411;SDS011;22445;52.100;5.176;2024-01-10T05:59:15;5.88;;;2.72;;
36411;SDS011;22445;52.100;5.176;2024-01-10T06:01:42;5.03;;;2.47;;
36411;SDS011;22445;52.100;5.176;2024-01-10T06:04:08;3.00;;;2.10;;
36411;SDS011;22445;52.100;5.176;2024-01-10T06:06:33;5.57;;;2.47;;
36411;SDS011;22445;52.100;5.176;2024-01-10T06:08:59;5.68;;;2.38;;
36411;SDS011;22445;52.100;5.176;2024-01-10T06:11:25;5.18;;;2.90;;
36411;SDS011;22445;52.100;5.176;2024-01-10T06:13:51;9.15;;;3.75;;
36411;SDS011;22445;52.100;5.176;2024-01-10T06:16:16;8.55;;;2.80;;
36411;SDS011;22445;52.100;5.176;2024-01-10T06:18:42;8.00;;;3.17;;
36411;SDS011;22445;52.100;5.176;2024-01-10T06:21:08;6.70;;;3.40;;
36411;SDS011;22445;52.100;5.176;2024-01-10T06:23:34;3.65;;;2.20;;
36411;SDS011;22445;52.100;5.176;2024-01-10T06:25:59;4.70;;;2.55;;
36411;SDS011;22445;52.100;5.176;2024-01-10T06:28:25;6.18;;;3.00;;
36411;SDS011;22445;52.100;5.176;2024-01-10T06:30:50;4.47;;;2.92;;
36411;SDS011;22445;52.100;5.176;2024-01-10T06:33:17;11.45;;;3.03;;
36411;SDS011;22445;52.100;5.176;2024-01-10T06:35:45;4.80;;;2.95;;
36411;SDS011;22445;52.100;5.176;2024-01-10T06:38:11;5.00;;;2.60;;
36411;SDS011;22445;52.100;5.176;2024-01-10T06:40:36;6.25;;;3.42;;
36411;SDS011;22445;52.100;5.176;2024-01-10T06:43:02;7.22;;;2.65;;
36411;SDS011;22445;52.100;5.176;2024-01-10T06:45:33;5.13;;;2.60;;
36411;SDS011;22445;52.100;5.176;2024-01-10T06:47:59;6.63;;;2.83;;
36411;SDS011;22445;52.100;5.176;2024-01-10T06:50:24;4.63;;;2.35;;
36411;SDS011;22445;52.100;5.176;2024-01-10T06:52:50;7.13;;;3.00;;
36411;SDS011;22445;52.100;5.176;2024-01-10T06:55:16;5.50;;;2.80;;
36411;SDS011;22445;52.100;5.176;2024-01-10T06:57:41;6.78;;;2.67;;
36411;SDS011;22445;52.100;5.176;2024-01-10T07:00:07;4.75;;;2.38;;
36411;SDS011;22445;52.100;5.176;2024-01-10T07:02:39;10.02;;;2.85;;
36411;SDS011;22445;52.100;5.176;2024-01-10T07:05:08;5.82;;;2.40;;
36411;SDS011;22445;52.100;5.176;2024-01-10T07:07:34;4.25;;;3.03;;
36411;SDS011;22445;52.100;5.176;2024-01-10T07:10:00;8.13;;;3.05;;
36411;SDS011;22445;52.100;5.176;2024-01-10T07:12:33;8.00;;;2.65;;
36411;SDS011;22445;52.100;5.176;2024-01-10T07:14:59;5.10;;;2.97;;
36411;SDS011;22445;52.100;5.176;2024-01-10T07:17:25;6.40;;;3.10;;
36411;SDS011;22445;52.100;5.176;2024-01-10T07:19:51;8.50;;;2.42;;
36411;SDS011;22445;52.100;5.176;2024-01-10T07:22:16;5.63;;;3.08;;
36411;SDS011;22445;52.100;5.176;2024-01-10T07:24:43;5.80;;;3.33;;
36411;SDS011;22445;52.100;5.176;2024-01-10T07:27:09;5.35;;;2.15;;
36411;SDS011;22445;52.100;5.176;2024-01-10T07:29:35;10.27;;;2.90;;
36411;SDS011;22445;52.100;5.176;2024-01-10T07:32:00;5.88;;;3.13;;
36411;SDS011;22445;52.100;5.176;2024-01-10T07:34:26;4.43;;;2.80;;
36411;SDS011;22445;52.100;5.176;2024-01-10T07:36:52;6.13;;;2.47;;
36411;SDS011;22445;52.100;5.176;2024-01-10T07:39:19;5.28;;;2.58;;
36411;SDS011;22445;52.100;5.176;2024-01-10T07:41:45;4.57;;;2.78;;
36411;SDS011;22445;52.100;5.176;2024-01-10T07:44:11;6.45;;;2.53;;
36411;SDS011;22445;52.100;5.176;2024-01-10T07:46:37;4.18;;;2.35;;
36411;SDS011;22445;52.100;5.176;2024-01-10T07:49:03;5.65;;;3.17;;
36411;SDS011;22445;52.100;5.176;2024-01-10T07:51:30;4.07;;;2.30;;
36411;SDS011;22445;52.100;5.176;2024-01-10T07:53:58;6.53;;;3.00;;
36411;SDS011;22445;52.100;5.176;2024-01-10T07:56:24;5.20;;;2.75;;
36411;SDS011;22445;52.100;5.176;2024-01-10T07:58:50;5.63;;;2.33;;
36411;SDS011;22445;52.100;5.176;2024-01-10T08:01:17;6.88;;;3.00;;
36411;SDS011;22445;52.100;5.176;2024-01-10T08:03:42;7.72;;;2.70;;
36411;SDS011;22445;52.100;5.176;2024-01-10T08:06:08;10.18;;;3.17;;
36411;SDS011;22445;52.100;5.176;2024-01-10T08:08:35;3.90;;;2.42;;
36411;SDS011;22445;52.100;5.176;2024-01-10T08:11:01;6.35;;;2.83;;
36411;SDS011;22445;52.100;5.176;2024-01-10T08:13:27;8.27;;;4.13;;
36411;SDS011;22445;52.100;5.176;2024-01-10T08:15:53;5.85;;;3.40;;
36411;SDS011;22445;52.100;5.176;2024-01-10T08:18:19;10.15;;;2.97;;
36411;SDS011;22445;52.100;5.176;2024-01-10T08:20:45;5.57;;;3.10;;
36411;SDS011;22445;52.100;5.176;2024-01-10T08:23:10;8.23;;;3.55;;
36411;SDS011;22445;52.100;5.176;2024-01-10T08:25:36;6.00;;;2.97;;
36411;SDS011;22445;52.100;5.176;2024-01-10T08:28:03;6.32;;;3.63;;
36411;SDS011;22445;52.100;5.176;2024-01-10T08:30:29;5.30;;;3.40;;
36411;SDS011;22445;52.100;5.176;2024-01-10T08:32:54;5.60;;;2.88;;
36411;SDS011;22445;52.100;5.176;2024-01-10T08:35:20;7.13;;;3.50;;
36411;SDS011;22445;52.100;5.176;2024-01-10T08:37:45;5.22;;;2.53;;
36411;SDS011;22445;52.100;5.176;2024-01-10T08:40:12;5.95;;;3.30;;
36411;SDS011;22445;52.100;5.176;2024-01-10T08:42:41;6.90;;;3.78;;
36411;SDS011;22445;52.100;5.176;2024-01-10T08:45:07;7.95;;;3.80;;
36411;SDS011;22445;52.100;5.176;2024-01-10T08:47:35;5.68;;;3.08;;
36411;SDS011;22445;52.100;5.176;2024-01-10T08:50:02;6.30;;;3.40;;
36411;SDS011;22445;52.100;5.176;2024-01-10T08:52:30;5.90;;;3.20;;
36411;SDS011;22445;52.100;5.176;2024-01-10T08:54:57;6.32;;;3.63;;
36411;SDS011;22445;52.100;5.176;2024-01-10T08:57:23;6.30;;;3.03;;
36411;SDS011;22445;52.100;5.176;2024-01-10T08:59:48;5.20;;;3.35;;
36411;SDS011;22445;52.100;5.176;2024-01-10T09:02:14;6.03;;;3.38;;
36411;SDS011;22445;52.100;5.176;2024-01-10T09:04:39;5.72;;;3.78;;
36411;SDS011;22445;52.100;5.176;2024-01-10T09:07:06;4.75;;;3.63;;
36411;SDS011;22445;52.100;5.176;2024-01-10T09:09:32;5.28;;;3.08;;
36411;SDS011;22445;52.100;5.176;2024-01-10T09:11:58;6.30;;;3.92;;
36411;SDS011;22445;52.100;5.176;2024-01-10T09:14:23;5.07;;;3.15;;
36411;SDS011;22445;52.100;5.176;2024-01-10T09:16:49;4.70;;;3.13;;
36411;SDS011;22445;52.100;5.176;2024-01-10T09:19:14;5.75;;;3.20;;
36411;SDS011;22445;52.100;5.176;2024-01-10T09:21:40;5.82;;;3.20;;
36411;SDS011;22445;52.100;5.176;2024-01-10T09:24:06;6.30;;;3.20;;
36411;SDS011;22445;52.100;5.176;2024-01-10T09:26:34;5.57;;;3.58;;
36411;SDS011;22445;52.100;5.176;2024-01-10T09:28:59;5.18;;;3.28;;
36411;SDS011;22445;52.100;5.176;2024-01-10T09:31:25;5.25;;;4.05;;
36411;SDS011;22445;52.100;5.176;2024-01-10T09:33:51;5.10;;;3.40;;
36411;SDS011;22445;52.100;5.176;2024-01-10T09:36:16;5.70;;;3.67;;
36411;SDS011;22445;52.100;5.176;2024-01-10T09:38:42;8.68;;;3.55;;
36411;SDS011;22445;52.100;5.176;2024-01-10T09:41:07;5.40;;;3.40;;
36411;SDS011;22445;52.100;5.176;2024-01-10T09:43:33;6.90;;;3.90;;
36411;SDS011;22445;52.100;5.176;2024-01-10T09:46:00;8.25;;;4.30;;
36411;SDS011;22445;52.100;5.176;2024-01-10T09:48:27;6.30;;;3.65;;
36411;SDS011;22445;52.100;5.176;2024-01-10T09:50:54;5.80;;;3.70;;
36411;SDS011;22445;52.100;5.176;2024-01-10T09:53:27;7.15;;;4.10;;
36411;SDS011;22445;52.100;5.176;2024-01-10T09:55:53;8.40;;;3.45;;
36411;SDS011;22445;52.100;5.176;2024-01-10T09:58:25;6.65;;;3.78;;
36411;SDS011;22445;52.100;5.176;2024-01-10T10:00:51;6.53;;;3.65;;
36411;SDS011;22445;52.100;5.176;2024-01-10T10:03:17;6.28;;;4.10;;
36411;SDS011;22445;52.100;5.176;2024-01-10T10:05:44;5.88;;;4.03;;
36411;SDS011;22445;52.100;5.176;2024-01-10T10:08:11;5.30;;;3.42;;
36411;SDS011;22445;52.100;5.176;2024-01-10T10:10:39;6.93;;;3.63;;
36411;SDS011;22445;52.100;5.176;2024-01-10T10:13:09;7.28;;;3.65;;
36411;SDS011;22445;52.100;5.176;2024-01-10T10:15:36;5.22;;;3.70;;
36411;SDS011;22445;52.100;5.176;2024-01-10T10:18:02;6.22;;;4.05;;
36411;SDS011;22445;52.100;5.176;2024-01-10T10:20:28;5.85;;;3.50;;
36411;SDS011;22445;52.100;5.176;2024-01-10T10:23:03;5.28;;;3.70;;
36411;SDS011;22445;52.100;5.176;2024-01-10T10:25:36;6.00;;;4.00;;
36411;SDS011;22445;52.100;5.176;2024-01-10T10:28:03;5.82;;;3.90;;
36411;SDS011;22445;52.100;5.176;2024-01-10T10:30:32;5.18;;;3.35;;
36411;SDS011;22445;52.100;5.176;2024-01-10T10:32:58;5.70;;;4.47;;
36411;SDS011;22445;52.100;5.176;2024-01-10T10:35:24;5.22;;;3.65;;
36411;SDS011;22445;52.100;5.176;2024-01-10T10:37:50;5.40;;;3.78;;
36411;SDS011;22445;52.100;5.176;2024-01-10T10:40:17;7.05;;;3.45;;
36411;SDS011;22445;52.100;5.176;2024-01-10T10:42:47;6.20;;;3.92;;
36411;SDS011;22445;52.100;5.176;2024-01-10T10:45:15;5.57;;;4.03;;
36411;SDS011;22445;52.100;5.176;2024-01-10T10:47:45;7.50;;;4.13;;
36411;SDS011;22445;52.100;5.176;2024-01-10T10:50:21;6.45;;;3.60;;
36411;SDS011;22445;52.100;5.176;2024-01-10T10:52:50;5.60;;;3.92;;
36411;SDS011;22445;52.100;5.176;2024-01-10T10:55:17;4.80;;;3.63;;
36411;SDS011;22445;52.100;5.176;2024-01-10T10:57:47;5.28;;;3.90;;
36411;SDS011;22445;52.100;5.176;2024-01-10T11:00:14;6.03;;;4.03;;
36411;SDS011;22445;52.100;5.176;2024-01-10T11:02:40;6.68;;;3.88;;
36411;SDS011;22445;52.100;5.176;2024-01-10T11:05:07;6.40;;;4.53;;
36411;SDS011;22445;52.100;5.176;2024-01-10T11:07:37;6.10;;;4.30;;
36411;SDS011;22445;52.100;5.176;2024-01-10T11:10:10;5.95;;;4.00;;
36411;SDS011;22445;52.100;5.176;2024-01-10T11:22:36;6.57;;;4.93;;
36411;SDS011;22445;52.100;5.176;2024-01-10T11:25:22;5.13;;;4.07;;
36411;SDS011;22445;52.100;5.176;2024-01-10T11:27:53;5.55;;;4.05;;
36411;SDS011;22445;52.100;5.176;2024-01-10T11:33:36;10.23;;;4.80;;
36411;SDS011;22445;52.100;5.176;2024-01-10T11:36:16;6.65;;;4.85;;
36411;SDS011;22445;52.100;5.176;2024-01-10T11:41:38;7.03;;;4.82;;
36411;SDS011;22445;52.100;5.176;2024-01-10T11:46:55;7.97;;;4.45;;
36411;SDS011;22445;52.100;5.176;2024-01-10T11:49:22;5.32;;;4.55;;
36411;SDS011;22445;52.100;5.176;2024-01-10T11:51:53;8.80;;;5.10;;
36411;SDS011;22445;52.100;5.176;2024-01-10T11:57:28;8.07;;;4.68;;
36411;SDS011;22445;52.100;5.176;2024-01-10T11:59:57;5.85;;;4.28;;
36411;SDS011;22445;52.100;5.176;2024-01-10T12:02:25;5.15;;;4.15;;
36411;SDS011;22445;52.100;5.176;2024-01-10T12:04:52;7.00;;;4.30;;
36411;SDS011;22445;52.100;5.176;2024-01-10T12:07:18;6.00;;;4.65;;
36411;SDS011;22445;52.100;5.176;2024-01-10T12:09:44;7.35;;;4.43;;
36411;SDS011;22445;52.100;5.176;2024-01-10T12:12:10;6.57;;;4.72;;
36411;SDS011;22445;52.100;5.176;2024-01-10T12:14:37;6.43;;;4.50;;
36411;SDS011;22445;52.100;5.176;2024-01-10T12:17:04;5.07;;;4.40;;
36411;SDS011;22445;52.100;5.176;2024-01-10T12:19:31;6.43;;;4.45;;
36411;SDS011;22445;52.100;5.176;2024-01-10T12:21:57;7.57;;;4.50;;
36411;SDS011;22445;52.100;5.176;2024-01-10T12:24:22;5.90;;;4.40;;
36411;SDS011;22445;52.100;5.176;2024-01-10T12:26:49;7.05;;;4.90;;
36411;SDS011;22445;52.100;5.176;2024-01-10T12:29:18;5.70;;;4.50;;
36411;SDS011;22445;52.100;5.176;2024-01-10T12:31:47;5.70;;;4.88;;
36411;SDS011;22445;52.100;5.176;2024-01-10T12:34:13;6.38;;;4.57;;
36411;SDS011;22445;52.100;5.176;2024-01-10T12:36:40;7.47;;;4.38;;
36411;SDS011;22445;52.100;5.176;2024-01-10T12:39:07;6.75;;;4.90;;
36411;SDS011;22445;52.100;5.176;2024-01-10T12:41:33;4.90;;;4.22;;
36411;SDS011;22445;52.100;5.176;2024-01-10T12:43:59;5.55;;;4.18;;
36411;SDS011;22445;52.100;5.176;2024-01-10T12:46:28;7.57;;;4.75;;
36411;SDS011;22445;52.100;5.176;2024-01-10T12:48:58;8.63;;;4.47;;
36411;SDS011;22445;52.100;5.176;2024-01-10T12:51:26;6.38;;;4.63;;
36411;SDS011;22445;52.100;5.176;2024-01-10T12:53:53;5.90;;;4.70;;
36411;SDS011;22445;52.100;5.176;2024-01-10T12:56:18;7.32;;;4.90;;
36411;SDS011;22445;52.100;5.176;2024-01-10T12:58:44;5.85;;;4.40;;
36411;SDS011;22445;52.100;5.176;2024-01-10T13:01:10;5.63;;;4.57;;
36411;SDS011;22445;52.100;5.176;2024-01-10T13:03:37;6.22;;;4.82;;
36411;SDS011;22445;52.100;5.176;2024-01-10T13:06:03;7.50;;;4.65;;
36411;SDS011;22445;52.100;5.176;2024-01-10T13:08:30;5.07;;;4.22;;
36411;SDS011;22445;52.100;5.176;2024-01-10T13:10:57;5.35;;;4.50;;
36411;SDS011;22445;52.100;5.176;2024-01-10T13:13:25;6.45;;;4.82;;
36411;SDS011;22445;52.100;5.176;2024-01-10T13:15:51;5.60;;;4.30;;
36411;SDS011;22445;52.100;5.176;2024-01-10T13:18:16;7.90;;;4.90;;
36411;SDS011;22445;52.100;5.176;2024-01-10T13:20:43;7.35;;;4.50;;
36411;SDS011;22445;52.100;5.176;2024-01-10T13:23:09;7.95;;;4.68;;
36411;SDS011;22445;52.100;5.176;2024-01-10T13:25:35;6.57;;;4.20;;
36411;SDS011;22445;52.100;5.176;2024-01-10T13:28:05;5.88;;;4.60;;
36411;SDS011;22445;52.100;5.176;2024-01-10T13:30:30;6.13;;;4.32;;
36411;SDS011;22445;52.100;5.176;2024-01-10T13:32:56;6.60;;;5.38;;
36411;SDS011;22445;52.100;5.176;2024-01-10T13:35:23;6.40;;;4.93;;
36411;SDS011;22445;52.100;5.176;2024-01-10T13:37:49;5.20;;;4.10;;
36411;SDS011;22445;52.100;5.176;2024-01-10T13:40:14;5.30;;;4.10;;
36411;SDS011;22445;52.100;5.176;2024-01-10T13:42:40;5.60;;;3.78;;
36411;SDS011;22445;52.100;5.176;2024-01-10T13:45:07;7.03;;;4.82;;
36411;SDS011;22445;52.100;5.176;2024-01-10T13:47:36;7.30;;;5.40;;
36411;SDS011;22445;52.100;5.176;2024-01-10T13:50:03;6.15;;;4.47;;
36411;SDS011;22445;52.100;5.176;2024-01-10T13:52:29;10.55;;;5.47;;
36411;SDS011;22445;52.100;5.176;2024-01-10T13:54:55;4.88;;;3.90;;
36411;SDS011;22445;52.100;5.176;2024-01-10T13:57:21;7.80;;;5.03;;
36411;SDS011;22445;52.100;5.176;2024-01-10T13:59:47;8.82;;;4.97;;
36411;SDS011;22445;52.100;5.176;2024-01-10T14:02:13;7.22;;;5.05;;
36411;SDS011;22445;52.100;5.176;2024-01-10T14:04:39;6.68;;;4.75;;
36411;SDS011;22445;52.100;5.176;2024-01-10T14:07:05;6.20;;;4.72;;
36411;SDS011;22445;52.100;5.176;2024-01-10T14:09:31;5.75;;;4.63;;
36411;SDS011;22445;52.100;5.176;2024-01-10T14:11:56;6.88;;;4.80;;
36411;SDS011;22445;52.100;5.176;2024-01-10T14:14:22;7.18;;;4.97;;
36411;SDS011;22445;52.100;5.176;2024-01-10T14:16:47;9.45;;;4.40;;
36411;SDS011;22445;52.100;5.176;2024-01-10T14:19:14;6.85;;;4.40;;
36411;SDS011;22445;52.100;5.176;2024-01-10T14:21:43;7.75;;;4.35;;
36411;SDS011;22445;52.100;5.176;2024-01-10T14:24:10;8.20;;;4.47;;
36411;SDS011;22445;52.100;5.176;2024-01-10T14:26:36;6.95;;;4.68;;
36411;SDS011;22445;52.100;5.176;2024-01-10T14:29:02;7.65;;;5.10;;
36411;SDS011;22445;52.100;5.176;2024-01-10T14:31:28;7.20;;;5.03;;
36411;SDS011;22445;52.100;5.176;2024-01-10T14:33:53;7.82;;;5.18;;
36411;SDS011;22445;52.100;5.176;2024-01-10T14:36:20;6.18;;;4.25;;
36411;SDS011;22445;52.100;5.176;2024-01-10T14:38:46;8.07;;;5.07;;
36411;SDS011;22445;52.100;5.176;2024-01-10T14:41:11;7.22;;;5.18;;
36411;SDS011;22445;52.100;5.176;2024-01-10T14:43:37;7.05;;;4.88;;
36411;SDS011;22445;52.100;5.176;2024-01-10T14:46:03;7.47;;;4.32;;
36411;SDS011;22445;52.100;5.176;2024-01-10T14:48:31;10.02;;;4.82;;
36411;SDS011;22445;52.100;5.176;2024-01-10T14:51:00;7.32;;;4.93;;
36411;SDS011;22445;52.100;5.176;2024-01-10T14:53:26;8.05;;;4.38;;
36411;SDS011;22445;52.100;5.176;2024-01-10T14:55:52;8.23;;;4.57;;
36411;SDS011;22445;52.100;5.176;2024-01-10T14:58:17;7.18;;;4.82;;
36411;SDS011;22445;52.100;5.176;2024-01-10T15:00:43;6.15;;;3.45;;
36411;SDS011;22445;52.100;5.176;2024-01-10T15:03:09;7.32;;;3.97;;
36411;SDS011;22445;52.100;5.176;2024-01-10T15:05:35;6.70;;;4.18;;